• Join FlightAware (Why Join?)
  • Login
  • US Flag 
Trick or treat! (Boo!!) 
05:28AM EDT


 

Airport Tracker/Info


-or-


 

Live Flight TrackerFlight Track Log ✈ CHQ4746 ✈ 06-May-2013 ✈ KSDF - KCLE

Flight Track Log - Related Links

Times and Time Zones

All times are in EDT time to prevent confusion due to time zone crossing. See the CHQ4746 flight status page for this flight to view local times or setup timezone preferences in your user account.

Time Position Orientation Groundspeed Altitude Reporting Facility
EDT Latitude Longitude Course Direction KTS MPH feet Rate Location/Type
05:58AM 38.1500 -85.7167 169° South 160 184 1,200  Level Louisville TRACON
05:59AM 38.0833 -85.7000 169° South 225 259 3,600 1,680 Climbing Louisville TRACON
06:00AM 38.0792 -85.6725 101° East 206 237 4,400 2,100 Climbing Indianapolis Center
06:01AM 38.1236 -85.6336 35° Northeast 256 295 6,800 2,280 Climbing Indianapolis Center
06:02AM 38.1933 -85.6703 338° Northwest 265 305 9,100 2,160 Climbing Indianapolis Center
06:03AM 38.2617 -85.7100 335° Northwest 269 310 11,200 1,920 Climbing Indianapolis Center
06:04AM 38.3333 -85.7528 335° Northwest 282 325 13,000 1,680 Climbing Indianapolis Center
06:05AM 38.4108 -85.7989 335° Northwest 303 349 14,600 1,500 Climbing Indianapolis Center
06:06AM 38.4925 -85.8469 335° Northwest 319 367 16,100 1,260 Climbing Indianapolis Center
06:07AM 38.5797 -85.8983 335° Northwest 339 390 17,200 1,140 Climbing Indianapolis Center
06:08AM 38.6764 -85.9136 353° North 355 409 18,400 1,140 Climbing Indianapolis Center
06:09AM 38.7517 -85.8178 45° Northeast 340 391 19,600 1,140 Climbing Indianapolis Center
06:10AM 38.8050 -85.7167 56° Northeast 343 395 20,700 1,200 Climbing Indianapolis Center
06:11AM 38.8600 -85.6119 56° Northeast 353 406 22,100 1,320 Climbing Indianapolis Center
06:12AM 38.9139 -85.5094 56° Northeast 351 404 23,400 1,320 Climbing Indianapolis Center
06:13AM 38.9678 -85.4058 56° Northeast 352 405 24,800 1,380 Climbing Indianapolis Center
06:14AM 39.0206 -85.3042 56° Northeast 348 400 26,200 1,080 Climbing Indianapolis Center
06:15AM 39.0739 -85.2014 56° Northeast 348 400 27,000 360 Climbing Indianapolis Center
06:16AM 39.1317 -85.0919 56° Northeast 369 425 27,000  Level Indianapolis Center
06:17AM 39.1889 -84.9789 57° Northeast 377 434 27,000  Level Indianapolis Center
06:18AM 39.2478 -84.8653 56° Northeast 382 440 27,000  Level Indianapolis Center
06:19AM 39.3086 -84.7486 56° Northeast 387 445 27,000  Level Indianapolis Center
06:20AM 39.3678 -84.6322 57° Northeast 382 440 27,000  Level Indianapolis Center
06:21AM 39.4258 -84.5164 57° Northeast 380 437 27,000 -60 Level Indianapolis Center
06:22AM 39.4836 -84.4019 57° Northeast 379 436 26,900  Descending Indianapolis Center
06:23AM 39.5428 -84.2864 56° Northeast 379 436 27,000  Climbing Indianapolis Center
06:24AM 39.6028 -84.1656 57° Northeast 391 450 27,000  Level Indianapolis Center
06:25AM 39.6642 -84.0442 57° Northeast 400 460 27,000  Level Indianapolis Center
06:26AM 39.7417 -83.9383 46° Northeast 403 464 27,000 -180 Level Indianapolis Center
06:27AM 39.8333 -83.8419 39° Northeast 414 476 26,700 -780 Descending Indianapolis Center
06:28AM 39.9247 -83.7425 40° Northeast 418 481 25,500 -1,260 Descending Indianapolis Center
06:29AM 40.0147 -83.6464 39° Northeast 411 473 24,200 -780 Descending Indianapolis Center
06:30AM 40.1011 -83.5536 39° Northeast 396 456 24,000 -420 Descending Indianapolis Center
06:31AM 40.1872 -83.4594 40° Northeast 397 457 23,400 -720 Descending Indianapolis Center
06:32AM 40.2578 -83.3769 42° Northeast 402 463 22,600 -1,080 Descending Indianapolis Center
06:33AM 40.3397 -83.2719 44° Northeast 406 467 21,300 -1,560 Descending Indianapolis Center
06:34AM 40.4186 -83.1711 44° Northeast 394 453 19,500 -1,200 Descending Indianapolis Center
06:35AM 40.4919 -83.0764 44° Northeast 370 426 19,000 -300 Descending Indianapolis Center
06:36AM 40.5783 -82.9661 44° Northeast 385 443 18,900 -1,260 Descending Indianapolis Center
06:37AM 40.6567 -82.8639 45° Northeast 391 450 16,500 -2,280 Descending Indianapolis Center
06:38AM 40.6978 -82.8125 43° Northeast 374 430 15,100 -2,280 Descending Cleveland Center
06:39AM 40.7706 -82.7189 44° Northeast 367 422 12,700 -2,580 Descending Cleveland Center
06:39AM 40.8131 -82.6653 44° Northeast 351 404 11,200 -2,640 Descending Cleveland Center
06:40AM 40.8367 -82.6278 50° Northeast 357 411 10,200 -840 Descending Cleveland Center
06:41AM 40.9008 -82.5472 43° Northeast 323 372 10,000 -120 Descending Cleveland Center
06:42AM 40.9831 -82.4864 29° Northeast 323 372 10,000 -300 Level Cleveland Center
06:43AM 41.0467 -82.4278 35° Northeast 303 349 9,500 -1,140 Descending Cleveland Center
06:44AM 41.0958 -82.3464 51° Northeast 261 300 7,800 -1,740 Descending Cleveland Center
06:45AM 41.1406 -82.2761 50° Northeast 251 289 6,100 -900 Descending Cleveland Center
06:46AM 41.1897 -82.2028 48° Northeast 250 288 6,000 -180 Descending Cleveland Center
06:47AM 41.2322 -82.1347 50° Northeast 252 290 5,800 -840 Descending Cleveland Center
06:48AM 41.2769 -82.0642 50° Northeast 252 290 4,500 -1,320 Descending Cleveland Center
06:49AM 41.3217 -81.9958 49° Northeast 252 290 3,100 -1,380 Descending Cleveland Center
06:49AM 41.3367 -81.9742 47° Northeast 240 276 2,700 -1,200 Descending Cleveland Center
06:50AM 41.3706 -81.9194 50° Northeast 164 189 1,600 -900 Descending Cleveland Center
06:51AM 41.3961 -81.8814 48° Northeast 140 161 900 -720 Descending Cleveland Center